sensor_id;sensor_type;location;lat;lon;timestamp;pressure;altitude;pressure_sealevel;temperature;humidity
37200;BME280;23096;50.892;16.746;2023-07-29T00:02:17;98672.77;;;19.48;64.29
37200;BME280;23096;50.892;16.746;2023-07-29T00:04:43;98667.41;;;19.50;64.26
37200;BME280;23096;50.892;16.746;2023-07-29T00:07:08;98666.30;;;19.51;64.15
37200;BME280;23096;50.892;16.746;2023-07-29T00:09:34;98665.46;;;19.50;64.20
37200;BME280;23096;50.892;16.746;2023-07-29T00:11:59;98663.05;;;19.50;64.31
37200;BME280;23096;50.892;16.746;2023-07-29T00:14:25;98663.23;;;19.47;64.31
37200;BME280;23096;50.892;16.746;2023-07-29T00:16:50;98663.63;;;19.47;64.31
37200;BME280;23096;50.892;16.746;2023-07-29T00:19:16;98658.11;;;19.49;64.39
37200;BME280;23096;50.892;16.746;2023-07-29T00:21:41;98657.21;;;19.49;64.41
37200;BME280;23096;50.892;16.746;2023-07-29T00:24:07;98663.36;;;19.50;64.37
37200;BME280;23096;50.892;16.746;2023-07-29T00:26:33;98663.79;;;19.49;64.57
37200;BME280;23096;50.892;16.746;2023-07-29T00:28:59;98665.97;;;19.50;64.58
37200;BME280;23096;50.892;16.746;2023-07-29T00:31:25;98662.98;;;19.49;64.37
37200;BME280;23096;50.892;16.746;2023-07-29T00:33:50;98659.67;;;19.46;64.51
37200;BME280;23096;50.892;16.746;2023-07-29T00:36:18;98660.93;;;19.44;64.40
37200;BME280;23096;50.892;16.746;2023-07-29T00:38:44;98658.61;;;19.42;64.55
37200;BME280;23096;50.892;16.746;2023-07-29T00:41:09;98666.06;;;19.45;64.59
37200;BME280;23096;50.892;16.746;2023-07-29T00:43:40;98662.02;;;19.45;64.57
37200;BME280;23096;50.892;16.746;2023-07-29T00:46:07;98654.83;;;19.48;64.69
37200;BME280;23096;50.892;16.746;2023-07-29T00:48:35;98658.52;;;19.54;64.88
37200;BME280;23096;50.892;16.746;2023-07-29T00:51:01;98656.35;;;19.60;64.87
37200;BME280;23096;50.892;16.746;2023-07-29T00:53:27;98651.71;;;19.66;64.61
37200;BME280;23096;50.892;16.746;2023-07-29T00:55:52;98652.02;;;19.73;64.94
37200;BME280;23096;50.892;16.746;2023-07-29T00:58:19;98648.65;;;19.78;64.77
37200;BME280;23096;50.892;16.746;2023-07-29T01:00:44;98651.31;;;19.82;64.73
37200;BME280;23096;50.892;16.746;2023-07-29T01:03:10;98650.38;;;19.85;64.61
37200;BME280;23096;50.892;16.746;2023-07-29T01:05:46;98651.88;;;19.88;64.59
37200;BME280;23096;50.892;16.746;2023-07-29T01:08:22;98651.23;;;19.92;64.54
37200;BME280;23096;50.892;16.746;2023-07-29T01:13:58;98652.54;;;20.02;64.56
37200;BME280;23096;50.892;16.746;2023-07-29T01:16:42;98649.20;;;20.04;64.55
37200;BME280;23096;50.892;16.746;2023-07-29T01:19:18;98647.91;;;20.09;64.49
37200;BME280;23096;50.892;16.746;2023-07-29T01:21:46;98646.04;;;20.16;64.40
37200;BME280;23096;50.892;16.746;2023-07-29T01:24:12;98644.36;;;20.21;64.51
37200;BME280;23096;50.892;16.746;2023-07-29T01:26:37;98642.05;;;20.26;64.42
37200;BME280;23096;50.892;16.746;2023-07-29T01:29:03;98640.65;;;20.30;64.24
37200;BME280;23096;50.892;16.746;2023-07-29T01:31:43;98642.03;;;20.35;64.29
37200;BME280;23096;50.892;16.746;2023-07-29T01:34:19;98642.06;;;20.41;64.17
37200;BME280;23096;50.892;16.746;2023-07-29T01:36:49;98642.98;;;20.46;63.89
37200;BME280;23096;50.892;16.746;2023-07-29T01:39:16;98641.25;;;20.51;63.84
37200;BME280;23096;50.892;16.746;2023-07-29T01:41:43;98641.48;;;20.54;63.72
37200;BME280;23096;50.892;16.746;2023-07-29T01:44:10;98642.20;;;20.57;63.72
37200;BME280;23096;50.892;16.746;2023-07-29T01:46:36;98641.79;;;20.57;63.62
37200;BME280;23096;50.892;16.746;2023-07-29T01:49:02;98636.73;;;20.55;63.45
37200;BME280;23096;50.892;16.746;2023-07-29T01:51:29;98639.83;;;20.53;63.39
37200;BME280;23096;50.892;16.746;2023-07-29T01:53:55;98643.43;;;20.52;63.33
37200;BME280;23096;50.892;16.746;2023-07-29T01:56:21;98639.23;;;20.50;63.30
37200;BME280;23096;50.892;16.746;2023-07-29T01:58:52;98642.30;;;20.48;63.09
37200;BME280;23096;50.892;16.746;2023-07-29T02:01:18;98640.03;;;20.46;62.97
37200;BME280;23096;50.892;16.746;2023-07-29T02:03:44;98639.75;;;20.45;63.04
37200;BME280;23096;50.892;16.746;2023-07-29T02:06:09;98647.38;;;20.44;63.08
37200;BME280;23096;50.892;16.746;2023-07-29T02:08:35;98644.69;;;20.43;63.16
37200;BME280;23096;50.892;16.746;2023-07-29T02:11:00;98644.33;;;20.43;63.06
37200;BME280;23096;50.892;16.746;2023-07-29T02:13:27;98645.43;;;20.46;63.03
37200;BME280;23096;50.892;16.746;2023-07-29T02:15:52;98643.88;;;20.48;63.01
37200;BME280;23096;50.892;16.746;2023-07-29T02:18:18;98650.17;;;20.51;62.90
37200;BME280;23096;50.892;16.746;2023-07-29T02:20:43;98649.11;;;20.53;62.81
37200;BME280;23096;50.892;16.746;2023-07-29T02:23:15;98650.86;;;20.55;62.95
37200;BME280;23096;50.892;16.746;2023-07-29T02:25:42;98646.98;;;20.55;62.83
37200;BME280;23096;50.892;16.746;2023-07-29T02:28:08;98646.44;;;20.54;62.66
37200;BME280;23096;50.892;16.746;2023-07-29T02:30:33;98649.10;;;20.44;62.43
37200;BME280;23096;50.892;16.746;2023-07-29T02:32:59;98647.20;;;20.29;62.44
37200;BME280;23096;50.892;16.746;2023-07-29T02:35:27;98643.63;;;20.11;62.24
37200;BME280;23096;50.892;16.746;2023-07-29T02:37:53;98641.35;;;19.91;62.17
37200;BME280;23096;50.892;16.746;2023-07-29T02:40:20;98645.08;;;19.77;62.27
37200;BME280;23096;50.892;16.746;2023-07-29T02:42:46;98646.58;;;19.65;62.24
37200;BME280;23096;50.892;16.746;2023-07-29T02:45:12;98647.11;;;19.51;62.35
37200;BME280;23096;50.892;16.746;2023-07-29T02:47:38;98646.92;;;19.45;62.54
37200;BME280;23096;50.892;16.746;2023-07-29T02:50:04;98649.07;;;19.40;62.66
37200;BME280;23096;50.892;16.746;2023-07-29T02:52:30;98648.15;;;19.33;62.71
37200;BME280;23096;50.892;16.746;2023-07-29T02:54:55;98651.19;;;19.25;62.75
37200;BME280;23096;50.892;16.746;2023-07-29T02:57:21;98649.16;;;19.20;62.95
37200;BME280;23096;50.892;16.746;2023-07-29T02:59:46;98654.05;;;19.18;63.02
37200;BME280;23096;50.892;16.746;2023-07-29T03:02:12;98654.49;;;19.09;63.01
37200;BME280;23096;50.892;16.746;2023-07-29T03:04:38;98655.88;;;18.98;63.14
37200;BME280;23096;50.892;16.746;2023-07-29T03:07:03;98662.27;;;18.89;63.29
37200;BME280;23096;50.892;16.746;2023-07-29T03:09:29;98661.34;;;18.83;63.55
37200;BME280;23096;50.892;16.746;2023-07-29T03:11:54;98659.66;;;18.80;63.63
37200;BME280;23096;50.892;16.746;2023-07-29T03:14:20;98663.98;;;18.75;63.61
37200;BME280;23096;50.892;16.746;2023-07-29T03:16:46;98667.68;;;18.70;63.55
37200;BME280;23096;50.892;16.746;2023-07-29T03:19:12;98669.53;;;18.64;63.96
37200;BME280;23096;50.892;16.746;2023-07-29T03:21:38;98667.96;;;18.59;64.00
37200;BME280;23096;50.892;16.746;2023-07-29T03:24:04;98665.42;;;18.56;64.26
37200;BME280;23096;50.892;16.746;2023-07-29T03:26:30;98664.96;;;18.55;64.26
37200;BME280;23096;50.892;16.746;2023-07-29T03:28:55;98666.42;;;18.52;64.40
37200;BME280;23096;50.892;16.746;2023-07-29T03:31:21;98667.61;;;18.47;64.37
37200;BME280;23096;50.892;16.746;2023-07-29T03:33:46;98661.84;;;18.41;64.61
37200;BME280;23096;50.892;16.746;2023-07-29T03:36:13;98662.23;;;18.33;64.60
37200;BME280;23096;50.892;16.746;2023-07-29T03:38:39;98664.44;;;18.29;64.67
37200;BME280;23096;50.892;16.746;2023-07-29T03:41:08;98673.30;;;18.31;64.94
37200;BME280;23096;50.892;16.746;2023-07-29T03:43:34;98673.31;;;18.31;65.10
37200;BME280;23096;50.892;16.746;2023-07-29T03:46:00;98673.77;;;18.30;65.29
37200;BME280;23096;50.892;16.746;2023-07-29T03:48:26;98675.02;;;18.27;65.16
37200;BME280;23096;50.892;16.746;2023-07-29T03:50:52;98678.60;;;18.26;65.30
37200;BME280;23096;50.892;16.746;2023-07-29T03:53:17;98681.73;;;18.23;65.46
37200;BME280;23096;50.892;16.746;2023-07-29T03:55:43;98685.92;;;18.20;65.33
37200;BME280;23096;50.892;16.746;2023-07-29T03:58:09;98682.55;;;18.19;65.55
37200;BME280;23096;50.892;16.746;2023-07-29T04:00:34;98687.27;;;18.18;65.88
37200;BME280;23096;50.892;16.746;2023-07-29T04:03:00;98689.19;;;18.18;65.93
37200;BME280;23096;50.892;16.746;2023-07-29T04:05:26;98691.56;;;18.22;65.88
37200;BME280;23096;50.892;16.746;2023-07-29T04:07:51;98690.88;;;18.24;66.11
37200;BME280;23096;50.892;16.746;2023-07-29T04:10:19;98692.04;;;18.27;66.17
37200;BME280;23096;50.892;16.746;2023-07-29T04:12:44;98690.48;;;18.27;66.06
37200;BME280;23096;50.892;16.746;2023-07-29T04:15:10;98688.54;;;18.23;66.09
37200;BME280;23096;50.892;16.746;2023-07-29T04:17:36;98690.55;;;18.21;66.17
37200;BME280;23096;50.892;16.746;2023-07-29T04:20:02;98693.30;;;18.22;66.30
37200;BME280;23096;50.892;16.746;2023-07-29T04:22:31;98690.91;;;18.24;66.37
37200;BME280;23096;50.892;16.746;2023-07-29T04:24:57;98693.73;;;18.25;66.62
37200;BME280;23096;50.892;16.746;2023-07-29T04:27:22;98689.95;;;18.30;66.52
37200;BME280;23096;50.892;16.746;2023-07-29T04:29:48;98690.63;;;18.32;66.87
37200;BME280;23096;50.892;16.746;2023-07-29T04:32:14;98692.66;;;18.38;66.85
37200;BME280;23096;50.892;16.746;2023-07-29T04:34:41;98690.88;;;18.41;66.86
37200;BME280;23096;50.892;16.746;2023-07-29T04:37:06;98695.52;;;18.44;67.03
37200;BME280;23096;50.892;16.746;2023-07-29T04:39:32;98690.29;;;18.47;66.93
37200;BME280;23096;50.892;16.746;2023-07-29T04:41:58;98692.57;;;18.48;67.02
37200;BME280;23096;50.892;16.746;2023-07-29T04:44:24;98690.91;;;18.50;67.16
37200;BME280;23096;50.892;16.746;2023-07-29T04:46:49;98690.95;;;18.54;67.11
37200;BME280;23096;50.892;16.746;2023-07-29T04:49:15;98687.63;;;18.59;67.15
37200;BME280;23096;50.892;16.746;2023-07-29T04:51:40;98689.67;;;18.65;67.51
37200;BME280;23096;50.892;16.746;2023-07-29T04:54:06;98693.05;;;18.70;67.39
37200;BME280;23096;50.892;16.746;2023-07-29T04:56:32;98691.52;;;18.72;67.46
37200;BME280;23096;50.892;16.746;2023-07-29T04:58:57;98695.01;;;18.74;67.41
37200;BME280;23096;50.892;16.746;2023-07-29T05:01:23;98690.60;;;18.77;67.46
37200;BME280;23096;50.892;16.746;2023-07-29T05:03:48;98691.86;;;18.82;67.75
37200;BME280;23096;50.892;16.746;2023-07-29T05:06:14;98692.61;;;18.88;67.76
37200;BME280;23096;50.892;16.746;2023-07-29T05:08:40;98693.96;;;18.96;67.86
37200;BME280;23096;50.892;16.746;2023-07-29T05:11:05;98699.23;;;19.05;68.16
37200;BME280;23096;50.892;16.746;2023-07-29T05:13:31;98697.40;;;19.13;67.99
37200;BME280;23096;50.892;16.746;2023-07-29T05:15:56;98699.67;;;19.22;68.22
37200;BME280;23096;50.892;16.746;2023-07-29T05:18:22;98700.17;;;19.27;68.20
37200;BME280;23096;50.892;16.746;2023-07-29T05:20:48;98702.73;;;19.30;68.25
37200;BME280;23096;50.892;16.746;2023-07-29T05:23:14;98704.05;;;19.38;68.31
37200;BME280;23096;50.892;16.746;2023-07-29T05:25:39;98701.69;;;19.43;68.24
37200;BME280;23096;50.892;16.746;2023-07-29T05:28:05;98702.51;;;19.49;68.18
37200;BME280;23096;50.892;16.746;2023-07-29T05:30:32;98705.42;;;19.56;68.12
37200;BME280;23096;50.892;16.746;2023-07-29T05:33:05;98703.98;;;19.61;68.17
37200;BME280;23096;50.892;16.746;2023-07-29T05:35:33;98704.98;;;19.68;68.27
37200;BME280;23096;50.892;16.746;2023-07-29T05:37:59;98703.66;;;19.77;68.35
37200;BME280;23096;50.892;16.746;2023-07-29T05:40:25;98700.28;;;19.85;68.41
37200;BME280;23096;50.892;16.746;2023-07-29T05:42:50;98705.92;;;19.93;68.37
37200;BME280;23096;50.892;16.746;2023-07-29T05:45:16;98709.02;;;20.00;68.25
37200;BME280;23096;50.892;16.746;2023-07-29T05:47:43;98710.55;;;20.09;68.42
37200;BME280;23096;50.892;16.746;2023-07-29T05:50:09;98705.98;;;20.18;68.36
37200;BME280;23096;50.892;16.746;2023-07-29T05:52:35;98702.04;;;20.28;68.45
37200;BME280;23096;50.892;16.746;2023-07-29T05:55:00;98704.52;;;20.39;68.49
37200;BME280;23096;50.892;16.746;2023-07-29T05:57:26;98702.09;;;20.47;68.53
37200;BME280;23096;50.892;16.746;2023-07-29T05:59:52;98704.84;;;20.56;68.57
37200;BME280;23096;50.892;16.746;2023-07-29T06:02:18;98702.61;;;20.64;68.59
37200;BME280;23096;50.892;16.746;2023-07-29T06:04:45;98702.79;;;20.73;68.55
37200;BME280;23096;50.892;16.746;2023-07-29T06:07:10;98702.55;;;20.80;68.47
37200;BME280;23096;50.892;16.746;2023-07-29T06:09:36;98700.80;;;20.84;68.39
37200;BME280;23096;50.892;16.746;2023-07-29T06:12:02;98699.85;;;20.90;68.40
37200;BME280;23096;50.892;16.746;2023-07-29T06:14:28;98703.35;;;20.94;68.35
37200;BME280;23096;50.892;16.746;2023-07-29T06:16:53;98703.10;;;20.97;68.32
37200;BME280;23096;50.892;16.746;2023-07-29T06:19:20;98705.06;;;21.05;68.42
37200;BME280;23096;50.892;16.746;2023-07-29T06:21:46;98703.79;;;21.13;68.41
37200;BME280;23096;50.892;16.746;2023-07-29T06:24:11;98703.51;;;21.21;68.48
37200;BME280;23096;50.892;16.746;2023-07-29T06:26:37;98707.05;;;21.29;68.47
37200;BME280;23096;50.892;16.746;2023-07-29T06:29:02;98707.61;;;21.37;68.46
37200;BME280;23096;50.892;16.746;2023-07-29T06:31:28;98710.45;;;21.49;68.49
37200;BME280;23096;50.892;16.746;2023-07-29T06:33:55;98710.38;;;21.64;68.45
37200;BME280;23096;50.892;16.746;2023-07-29T06:36:20;98708.98;;;21.78;68.44
37200;BME280;23096;50.892;16.746;2023-07-29T06:38:46;98702.69;;;21.90;68.34
37200;BME280;23096;50.892;16.746;2023-07-29T06:41:12;98703.56;;;22.04;68.31
37200;BME280;23096;50.892;16.746;2023-07-29T06:43:37;98700.41;;;22.16;68.05
37200;BME280;23096;50.892;16.746;2023-07-29T06:46:03;98699.20;;;22.24;67.75
37200;BME280;23096;50.892;16.746;2023-07-29T06:48:28;98697.40;;;22.33;67.61
37200;BME280;23096;50.892;16.746;2023-07-29T06:50:54;98692.67;;;22.43;67.47
37200;BME280;23096;50.892;16.746;2023-07-29T06:53:20;98688.65;;;22.50;67.17
37200;BME280;23096;50.892;16.746;2023-07-29T06:55:46;98685.73;;;22.59;66.97
37200;BME280;23096;50.892;16.746;2023-07-29T06:58:12;98688.21;;;22.65;66.80
37200;BME280;23096;50.892;16.746;2023-07-29T07:00:38;98690.36;;;22.70;66.57
37200;BME280;23096;50.892;16.746;2023-07-29T07:03:03;98688.21;;;22.76;66.29
37200;BME280;23096;50.892;16.746;2023-07-29T07:05:29;98686.37;;;22.86;66.25
37200;BME280;23096;50.892;16.746;2023-07-29T07:07:54;98685.27;;;22.94;66.06
37200;BME280;23096;50.892;16.746;2023-07-29T07:10:20;98686.81;;;23.02;65.87
37200;BME280;23096;50.892;16.746;2023-07-29T07:12:45;98690.24;;;23.08;65.74
37200;BME280;23096;50.892;16.746;2023-07-29T07:15:11;98691.23;;;23.13;65.58
37200;BME280;23096;50.892;16.746;2023-07-29T07:17:37;98694.07;;;23.16;65.30
37200;BME280;23096;50.892;16.746;2023-07-29T07:20:03;98694.08;;;23.16;65.11
37200;BME280;23096;50.892;16.746;2023-07-29T07:22:29;98693.06;;;23.18;65.00
37200;BME280;23096;50.892;16.746;2023-07-29T07:24:54;98689.23;;;23.21;64.78
37200;BME280;23096;50.892;16.746;2023-07-29T07:27:20;98690.45;;;23.25;64.61
37200;BME280;23096;50.892;16.746;2023-07-29T07:29:45;98688.00;;;23.27;64.47
37200;BME280;23096;50.892;16.746;2023-07-29T07:32:11;98684.06;;;23.26;64.20
37200;BME280;23096;50.892;16.746;2023-07-29T07:34:37;98678.80;;;23.26;64.15
37200;BME280;23096;50.892;16.746;2023-07-29T07:37:02;98681.55;;;23.28;64.16
37200;BME280;23096;50.892;16.746;2023-07-29T07:39:31;98682.27;;;23.38;64.26
37200;BME280;23096;50.892;16.746;2023-07-29T07:41:56;98686.25;;;23.46;64.10
37200;BME280;23096;50.892;16.746;2023-07-29T07:44:22;98689.45;;;23.54;64.04
37200;BME280;23096;50.892;16.746;2023-07-29T07:46:47;98691.08;;;23.64;63.90
37200;BME280;23096;50.892;16.746;2023-07-29T07:49:13;98693.06;;;23.68;63.71
37200;BME280;23096;50.892;16.746;2023-07-29T07:51:39;98690.29;;;23.70;63.66
37200;BME280;23096;50.892;16.746;2023-07-29T07:54:05;98689.33;;;23.69;63.46
37200;BME280;23096;50.892;16.746;2023-07-29T07:56:30;98688.73;;;23.71;63.32
37200;BME280;23096;50.892;16.746;2023-07-29T07:58:56;98685.13;;;23.78;63.31
37200;BME280;23096;50.892;16.746;2023-07-29T08:01:21;98682.95;;;23.88;63.10
37200;BME280;23096;50.892;16.746;2023-07-29T08:03:47;98681.14;;;23.95;62.94
37200;BME280;23096;50.892;16.746;2023-07-29T08:06:13;98680.02;;;23.95;62.72
37200;BME280;23096;50.892;16.746;2023-07-29T08:08:38;98676.39;;;23.87;62.43
37200;BME280;23096;50.892;16.746;2023-07-29T08:11:04;98680.20;;;23.78;62.25
37200;BME280;23096;50.892;16.746;2023-07-29T08:13:30;98678.71;;;23.71;62.19
37200;BME280;23096;50.892;16.746;2023-07-29T08:15:55;98675.88;;;23.66;62.15
37200;BME280;23096;50.892;16.746;2023-07-29T08:18:21;98672.58;;;23.61;61.97
37200;BME280;23096;50.892;16.746;2023-07-29T08:23:19;98667.98;;;23.51;61.80
37200;BME280;23096;50.892;16.746;2023-07-29T08:25:44;98667.13;;;23.48;61.76
37200;BME280;23096;50.892;16.746;2023-07-29T08:28:10;98660.63;;;23.52;61.81
37200;BME280;23096;50.892;16.746;2023-07-29T08:30:36;98651.21;;;23.62;61.99
37200;BME280;23096;50.892;16.746;2023-07-29T08:33:02;98651.30;;;23.74;61.89
37200;BME280;23096;50.892;16.746;2023-07-29T08:35:27;98650.10;;;23.89;62.06
37200;BME280;23096;50.892;16.746;2023-07-29T08:37:53;98645.98;;;24.02;61.88
37200;BME280;23096;50.892;16.746;2023-07-29T08:40:22;98641.81;;;24.15;61.78
37200;BME280;23096;50.892;16.746;2023-07-29T08:42:53;98640.80;;;24.30;61.72
37200;BME280;23096;50.892;16.746;2023-07-29T08:45:20;98642.17;;;24.42;61.50
37200;BME280;23096;50.892;16.746;2023-07-29T08:47:46;98643.52;;;24.42;61.38
37200;BME280;23096;50.892;16.746;2023-07-29T08:50:13;98644.36;;;24.39;60.96
37200;BME280;23096;50.892;16.746;2023-07-29T08:52:41;98641.58;;;24.33;60.69
37200;BME280;23096;50.892;16.746;2023-07-29T08:55:08;98642.16;;;24.24;60.68
37200;BME280;23096;50.892;16.746;2023-07-29T08:57:34;98645.02;;;24.20;60.72
37200;BME280;23096;50.892;16.746;2023-07-29T09:00:01;98642.64;;;24.26;60.83
37200;BME280;23096;50.892;16.746;2023-07-29T09:02:27;98643.05;;;24.36;60.80
37200;BME280;23096;50.892;16.746;2023-07-29T09:04:53;98643.06;;;24.38;60.70
37200;BME280;23096;50.892;16.746;2023-07-29T09:07:19;98640.55;;;24.33;60.49
37200;BME280;23096;50.892;16.746;2023-07-29T09:09:45;98637.80;;;24.23;60.32
37200;BME280;23096;50.892;16.746;2023-07-29T09:12:10;98639.64;;;24.19;60.35
37200;BME280;23096;50.892;16.746;2023-07-29T09:14:37;98639.62;;;24.19;60.38
37200;BME280;23096;50.892;16.746;2023-07-29T09:17:06;98641.49;;;24.27;60.44
37200;BME280;23096;50.892;16.746;2023-07-29T09:19:33;98636.79;;;24.36;60.54
37200;BME280;23096;50.892;16.746;2023-07-29T09:21:59;98632.62;;;24.47;60.49
37200;BME280;23096;50.892;16.746;2023-07-29T09:24:25;98630.86;;;24.60;60.39
37200;BME280;23096;50.892;16.746;2023-07-29T09:26:55;98630.27;;;24.73;60.33
37200;BME280;23096;50.892;16.746;2023-07-29T09:29:23;98631.70;;;24.87;60.27
37200;BME280;23096;50.892;16.746;2023-07-29T09:31:49;98633.02;;;25.03;60.29
37200;BME280;23096;50.892;16.746;2023-07-29T09:34:15;98632.43;;;25.15;60.28
37200;BME280;23096;50.892;16.746;2023-07-29T09:36:42;98627.67;;;25.23;60.17
37200;BME280;23096;50.892;16.746;2023-07-29T09:39:12;98624.80;;;25.33;60.00
37200;BME280;23096;50.892;16.746;2023-07-29T09:41:41;98624.70;;;25.45;59.94
37200;BME280;23096;50.892;16.746;2023-07-29T09:44:07;98619.89;;;25.55;59.75
37200;BME280;23096;50.892;16.746;2023-07-29T09:46:36;98615.17;;;25.63;59.55
37200;BME280;23096;50.892;16.746;2023-07-29T09:49:07;98617.45;;;25.71;59.36
37200;BME280;23096;50.892;16.746;2023-07-29T09:51:39;98621.10;;;25.80;59.22
37200;BME280;23096;50.892;16.746;2023-07-29T09:54:05;98622.83;;;25.89;59.12
37200;BME280;23096;50.892;16.746;2023-07-29T09:56:31;98625.58;;;25.96;58.82
37200;BME280;23096;50.892;16.746;2023-07-29T09:58:56;98626.71;;;26.03;58.58
37200;BME280;23096;50.892;16.746;2023-07-29T10:01:25;98624.90;;;26.06;58.31
37200;BME280;23096;50.892;16.746;2023-07-29T10:03:51;98627.89;;;26.16;58.05
37200;BME280;23096;50.892;16.746;2023-07-29T10:06:18;98626.02;;;26.27;58.04
37200;BME280;23096;50.892;16.746;2023-07-29T10:08:44;98622.37;;;26.36;57.74
37200;BME280;23096;50.892;16.746;2023-07-29T10:11:11;98623.92;;;26.42;57.52
37200;BME280;23096;50.892;16.746;2023-07-29T10:13:38;98620.81;;;26.43;57.03
37200;BME280;23096;50.892;16.746;2023-07-29T10:16:04;98625.52;;;26.43;56.96
37200;BME280;23096;50.892;16.746;2023-07-29T10:18:31;98630.06;;;26.40;56.57
37200;BME280;23096;50.892;16.746;2023-07-29T10:20:58;98632.21;;;26.40;56.52
37200;BME280;23096;50.892;16.746;2023-07-29T10:23:26;98630.92;;;26.46;56.50
37200;BME280;23096;50.892;16.746;2023-07-29T10:26:06;98635.71;;;26.47;56.22
37200;BME280;23096;50.892;16.746;2023-07-29T10:28:39;98637.06;;;26.37;55.71
37200;BME280;23096;50.892;16.746;2023-07-29T10:31:05;98636.80;;;26.24;55.56
37200;BME280;23096;50.892;16.746;2023-07-29T10:33:33;98631.58;;;26.15;55.51
37200;BME280;23096;50.892;16.746;2023-07-29T10:35:59;98622.60;;;26.15;55.28
37200;BME280;23096;50.892;16.746;2023-07-29T10:38:25;98620.38;;;26.16;54.97
37200;BME280;23096;50.892;16.746;2023-07-29T10:40:56;98613.36;;;26.17;55.20
37200;BME280;23096;50.892;16.746;2023-07-29T10:43:25;98614.55;;;26.21;54.90
37200;BME280;23096;50.892;16.746;2023-07-29T10:45:52;98615.80;;;26.30;54.65
37200;BME280;23096;50.892;16.746;2023-07-29T10:53:44;98605.45;;;26.38;54.07
37200;BME280;23096;50.892;16.746;2023-07-29T10:56:12;98603.16;;;26.38;53.92
37200;BME280;23096;50.892;16.746;2023-07-29T10:58:38;98604.49;;;26.39;53.65
37200;BME280;23096;50.892;16.746;2023-07-29T11:01:12;98605.34;;;26.41;53.32
37200;BME280;23096;50.892;16.746;2023-07-29T11:03:38;98601.95;;;26.45;53.23
37200;BME280;23096;50.892;16.746;2023-07-29T11:06:06;98599.59;;;26.50;53.06
37200;BME280;23096;50.892;16.746;2023-07-29T11:08:32;98598.36;;;26.55;53.08
37200;BME280;23096;50.892;16.746;2023-07-29T11:11:05;98593.53;;;26.59;52.97
37200;BME280;23096;50.892;16.746;2023-07-29T11:13:34;98590.16;;;26.63;52.67
37200;BME280;23096;50.892;16.746;2023-07-29T11:16:00;98582.89;;;26.70;52.64
37200;BME280;23096;50.892;16.746;2023-07-29T11:18:32;98577.96;;;26.74;52.30
37200;BME280;23096;50.892;16.746;2023-07-29T11:20:59;98575.31;;;26.81;52.23
37200;BME280;23096;50.892;16.746;2023-07-29T11:23:29;98573.80;;;26.90;52.13
37200;BME280;23096;50.892;16.746;2023-07-29T11:25:55;98573.29;;;26.91;51.92
37200;BME280;23096;50.892;16.746;2023-07-29T11:28:21;98565.17;;;26.88;51.66
37200;BME280;23096;50.892;16.746;2023-07-29T11:30:52;98563.73;;;26.84;51.50
37200;BME280;23096;50.892;16.746;2023-07-29T11:33:24;98559.41;;;26.82;51.34
37200;BME280;23096;50.892;16.746;2023-07-29T11:35:50;98560.38;;;26.77;51.14
37200;BME280;23096;50.892;16.746;2023-07-29T11:38:18;98557.25;;;26.72;51.19
37200;BME280;23096;50.892;16.746;2023-07-29T11:40:58;98558.50;;;26.64;50.94
37200;BME280;23096;50.892;16.746;2023-07-29T11:43:23;98559.80;;;26.54;50.87
37200;BME280;23096;50.892;16.746;2023-07-29T11:45:49;98559.69;;;26.46;50.91
37200;BME280;23096;50.892;16.746;2023-07-29T11:48:14;98558.08;;;26.45;50.82
37200;BME280;23096;50.892;16.746;2023-07-29T11:50:40;98562.08;;;26.47;50.90
37200;BME280;23096;50.892;16.746;2023-07-29T11:53:06;98556.29;;;26.52;50.93
37200;BME280;23096;50.892;16.746;2023-07-29T11:55:33;98555.41;;;26.53;50.80
37200;BME280;23096;50.892;16.746;2023-07-29T11:57:58;98548.98;;;26.51;50.77
37200;BME280;23096;50.892;16.746;2023-07-29T12:00:25;98545.43;;;26.48;50.83
37200;BME280;23096;50.892;16.746;2023-07-29T12:02:51;98543.67;;;26.50;50.86
37200;BME280;23096;50.892;16.746;2023-07-29T12:05:18;98540.86;;;26.56;51.00
37200;BME280;23096;50.892;16.746;2023-07-29T12:07:44;98530.04;;;26.60;50.88
37200;BME280;23096;50.892;16.746;2023-07-29T12:10:10;98530.79;;;26.66;50.99
37200;BME280;23096;50.892;16.746;2023-07-29T12:12:50;98525.65;;;26.74;50.94
37200;BME280;23096;50.892;16.746;2023-07-29T12:15:29;98521.73;;;26.83;50.95
37200;BME280;23096;50.892;16.746;2023-07-29T12:17:58;98521.54;;;26.91;50.95
37200;BME280;23096;50.892;16.746;2023-07-29T12:20:25;98512.17;;;26.93;50.74
37200;BME280;23096;50.892;16.746;2023-07-29T12:22:58;98515.01;;;26.88;50.46
37200;BME280;23096;50.892;16.746;2023-07-29T12:25:27;98513.92;;;26.88;50.51
37200;BME280;23096;50.892;16.746;2023-07-29T12:27:57;98509.58;;;26.91;50.22
37200;BME280;23096;50.892;16.746;2023-07-29T12:30:26;98505.44;;;26.87;50.13
37200;BME280;23096;50.892;16.746;2023-07-29T12:32:53;98511.52;;;26.83;50.07
37200;BME280;23096;50.892;16.746;2023-07-29T12:35:18;98503.61;;;26.76;49.97
37200;BME280;23096;50.892;16.746;2023-07-29T12:37:44;98503.64;;;26.73;50.16
37200;BME280;23096;50.892;16.746;2023-07-29T12:40:30;98498.42;;;26.71;49.93
37200;BME280;23096;50.892;16.746;2023-07-29T12:42:56;98498.03;;;26.68;50.04
37200;BME280;23096;50.892;16.746;2023-07-29T12:45:22;98491.86;;;26.61;50.03
37200;BME280;23096;50.892;16.746;2023-07-29T12:47:53;98491.15;;;26.53;49.88
37200;BME280;23096;50.892;16.746;2023-07-29T12:50:19;98488.78;;;26.52;50.24
37200;BME280;23096;50.892;16.746;2023-07-29T12:52:45;98481.29;;;26.58;50.11
37200;BME280;23096;50.892;16.746;2023-07-29T12:55:10;98486.40;;;26.62;50.13
37200;BME280;23096;50.892;16.746;2023-07-29T12:57:41;98483.38;;;26.67;50.40
37200;BME280;23096;50.892;16.746;2023-07-29T13:00:07;98476.48;;;26.73;50.40